createdAt,value
2022-11-06T00:01:35.603Z,2.50
2022-11-06T00:04:02.131Z,2.40
2022-11-06T00:06:46.946Z,2.30
2022-11-06T00:09:17.508Z,2.22
2022-11-06T00:11:44.284Z,2.70
2022-11-06T00:14:12.675Z,2.65
2022-11-06T00:16:39.962Z,2.50
2022-11-06T00:19:07.397Z,3.30
2022-11-06T00:21:36.252Z,2.55
2022-11-06T00:24:04.850Z,2.50
2022-11-06T00:26:31.954Z,2.30
2022-11-06T00:28:58.975Z,2.83
2022-11-06T00:31:28.447Z,2.10
2022-11-06T00:33:56.870Z,2.85
2022-11-06T00:36:24.538Z,3.10
2022-11-06T00:38:53.108Z,3.63
2022-11-06T00:41:19.837Z,3.00
2022-11-06T00:43:53.876Z,2.80
2022-11-06T00:46:22.115Z,2.75
2022-11-06T00:48:48.659Z,2.53
2022-11-06T00:51:20.445Z,2.50
2022-11-06T00:53:47.682Z,2.10
2022-11-06T00:56:19.084Z,2.40
2022-11-06T00:58:47.096Z,2.40
2022-11-06T01:01:22.603Z,2.22
2022-11-06T01:04:02.248Z,2.42
2022-11-06T01:06:31.075Z,2.40
2022-11-06T01:08:58.014Z,2.77
2022-11-06T01:11:27.162Z,2.15
2022-11-06T01:13:55.917Z,2.15
2022-11-06T01:16:24.411Z,2.35
2022-11-06T01:18:52.178Z,2.30
2022-11-06T01:21:22.029Z,1.97
2022-11-06T01:23:53.598Z,1.92
2022-11-06T01:26:36.852Z,2.10
2022-11-06T01:29:06.686Z,2.00
2022-11-06T01:31:33.863Z,1.95
2022-11-06T01:34:03.724Z,2.33
2022-11-06T01:36:31.015Z,1.98
2022-11-06T01:39:00.335Z,3.35
2022-11-06T01:41:32.589Z,2.17
2022-11-06T01:44:09.381Z,2.30
2022-11-06T01:46:36.740Z,2.37
2022-11-06T01:49:12.659Z,2.20
2022-11-06T01:51:43.540Z,2.25
2022-11-06T01:54:10.697Z,2.10
2022-11-06T01:56:38.203Z,2.20
2022-11-06T01:59:06.693Z,1.67
2022-11-06T02:01:33.590Z,2.10
2022-11-06T02:04:05.293Z,2.00
2022-11-06T02:06:32.171Z,1.83
2022-11-06T02:08:59.153Z,2.55
2022-11-06T02:11:26.103Z,2.47
2022-11-06T02:14:09.740Z,2.50
2022-11-06T02:16:55.890Z,2.53
2022-11-06T02:20:07.154Z,2.95
2022-11-06T02:22:51.902Z,2.63
2022-11-06T02:25:35.076Z,2.27
2022-11-06T02:28:05.145Z,2.28
2022-11-06T02:30:35.931Z,2.40
2022-11-06T02:33:18.787Z,2.50
2022-11-06T02:36:01.845Z,2.30
2022-11-06T02:38:33.902Z,2.10
2022-11-06T02:41:02.832Z,2.30
2022-11-06T02:43:33.376Z,2.58
2022-11-06T02:46:04.259Z,2.45
2022-11-06T02:48:34.299Z,2.53
2022-11-06T02:51:02.347Z,2.67
2022-11-06T02:53:30.254Z,2.28
2022-11-06T02:56:02.207Z,2.65
2022-11-06T02:58:33.435Z,2.70
2022-11-06T03:01:04.927Z,2.88
2022-11-06T03:03:34.418Z,3.00
2022-11-06T03:06:11.798Z,2.80
2022-11-06T03:08:51.430Z,2.60
2022-11-06T03:11:26.485Z,2.85
2022-11-06T03:13:54.829Z,3.00
2022-11-06T03:16:42.538Z,2.40
2022-11-06T03:19:48.444Z,2.70
2022-11-06T03:22:23.072Z,3.08
2022-11-06T03:25:11.194Z,2.75
2022-11-06T03:27:58.286Z,2.85
2022-11-06T03:30:24.829Z,2.50
2022-11-06T03:32:55.410Z,2.50
2022-11-06T03:35:27.413Z,3.15
2022-11-06T03:37:58.187Z,2.78
2022-11-06T03:40:28.033Z,2.78
2022-11-06T03:42:58.280Z,2.77
2022-11-06T03:45:26.417Z,3.00
2022-11-06T03:48:02.864Z,2.83
2022-11-06T03:50:33.048Z,2.80
2022-11-06T03:53:05.359Z,3.15
2022-11-06T03:55:36.587Z,3.10
2022-11-06T03:58:13.402Z,2.80
2022-11-06T04:00:41.955Z,2.78
2022-11-06T04:03:23.238Z,2.97
2022-11-06T04:06:07.475Z,3.15
2022-11-06T04:08:52.871Z,3.03
2022-11-06T04:11:41.109Z,2.90
2022-11-06T04:14:08.642Z,3.17
2022-11-06T04:16:38.605Z,3.28
2022-11-06T04:19:17.555Z,3.20
2022-11-06T04:21:50.231Z,3.50
2022-11-06T04:24:44.994Z,3.65
2022-11-06T04:27:43.621Z,3.33
2022-11-06T04:30:12.926Z,3.40
2022-11-06T04:33:11.694Z,3.92
2022-11-06T04:35:43.812Z,3.53
2022-11-06T04:38:20.118Z,3.50
2022-11-06T04:40:52.489Z,3.33
2022-11-06T04:43:26.430Z,3.60
2022-11-06T04:45:55.387Z,4.55
2022-11-06T04:48:22.447Z,3.50
2022-11-06T04:50:54.585Z,3.80
2022-11-06T04:53:22.032Z,3.88
2022-11-06T04:55:54.824Z,3.60
2022-11-06T04:58:21.288Z,3.72
2022-11-06T05:00:50.548Z,4.40
2022-11-06T05:03:17.351Z,3.28
2022-11-06T05:05:43.840Z,3.80
2022-11-06T05:08:16.173Z,4.05
2022-11-06T05:10:43.923Z,3.95
2022-11-06T05:13:10.783Z,3.90
2022-11-06T05:15:37.664Z,4.22
2022-11-06T05:18:04.997Z,3.92
2022-11-06T05:20:32.071Z,3.95
2022-11-06T05:22:58.689Z,4.03
2022-11-06T05:25:25.521Z,4.33
2022-11-06T05:27:52.364Z,4.40
2022-11-06T05:30:19.017Z,4.03
2022-11-06T05:32:45.572Z,4.32
2022-11-06T05:35:11.997Z,4.50
2022-11-06T05:37:38.506Z,4.33
2022-11-06T05:40:05.422Z,4.45
2022-11-06T05:42:31.888Z,4.80
2022-11-06T05:44:58.374Z,5.00
2022-11-06T05:47:24.820Z,5.25
2022-11-06T05:49:51.337Z,4.97
2022-11-06T05:52:17.876Z,5.15
2022-11-06T05:54:44.328Z,5.07
2022-11-06T05:57:12.327Z,4.55
2022-11-06T05:59:39.286Z,5.05
2022-11-06T06:02:05.846Z,5.53
2022-11-06T06:04:32.420Z,4.60
2022-11-06T06:07:00.675Z,5.03
2022-11-06T06:09:27.104Z,4.88
2022-11-06T06:11:54.104Z,4.63
2022-11-06T06:14:22.300Z,4.60
2022-11-06T06:16:48.847Z,4.55
2022-11-06T06:19:15.874Z,6.10
2022-11-06T06:21:42.589Z,6.25
2022-11-06T06:24:09.028Z,5.38
2022-11-06T06:26:35.722Z,5.13
2022-11-06T06:29:03.187Z,5.28
2022-11-06T06:31:29.894Z,5.43
2022-11-06T06:33:56.343Z,5.85
2022-11-06T06:36:22.958Z,5.20
2022-11-06T06:38:49.517Z,5.37
2022-11-06T06:41:16.173Z,5.50
2022-11-06T06:43:42.695Z,6.30
2022-11-06T06:46:09.549Z,6.13
2022-11-06T06:48:36.174Z,5.95
2022-11-06T06:51:03.331Z,5.27
2022-11-06T06:53:29.897Z,6.78
2022-11-06T06:56:00.047Z,6.20
2022-11-06T06:58:27.700Z,6.53
2022-11-06T07:00:55.125Z,6.57
2022-11-06T07:03:21.647Z,7.80
2022-11-06T07:05:49.362Z,6.93
2022-11-06T07:08:16.113Z,7.55
2022-11-06T07:10:42.835Z,7.07
2022-11-06T07:13:11.725Z,7.00
2022-11-06T07:15:38.400Z,7.23
2022-11-06T07:18:06.827Z,7.57
2022-11-06T07:20:34.182Z,6.72
2022-11-06T07:23:13.429Z,6.88
2022-11-06T07:25:41.013Z,6.88
2022-11-06T07:28:08.433Z,7.37
2022-11-06T07:30:35.970Z,6.35
2022-11-06T07:33:05.243Z,6.68
2022-11-06T07:35:33.207Z,6.18
2022-11-06T07:38:03.749Z,6.47
2022-11-06T07:40:30.312Z,6.30
2022-11-06T07:43:03.141Z,6.32
2022-11-06T07:45:29.614Z,6.47
2022-11-06T07:47:59.205Z,5.55
2022-11-06T07:50:26.321Z,5.32
2022-11-06T07:52:53.389Z,5.90
2022-11-06T07:55:20.999Z,4.95
2022-11-06T07:57:47.630Z,5.30
2022-11-06T08:00:14.773Z,4.57
2022-11-06T08:02:41.859Z,3.92
2022-11-06T08:05:08.682Z,4.50
2022-11-06T08:07:35.129Z,4.55
2022-11-06T08:10:05.867Z,4.85
2022-11-06T08:12:32.578Z,5.00
2022-11-06T08:14:59.134Z,5.30
2022-11-06T08:17:26.077Z,4.30
2022-11-06T08:19:52.525Z,4.60
2022-11-06T08:22:19.255Z,4.90
2022-11-06T08:24:45.775Z,4.65
2022-11-06T08:27:12.513Z,4.30
2022-11-06T08:29:41.668Z,4.30
2022-11-06T08:32:08.603Z,3.50
2022-11-06T08:34:36.160Z,3.45
2022-11-06T08:37:03.789Z,3.97
2022-11-06T08:39:32.475Z,4.07
2022-11-06T08:41:59.237Z,4.00
2022-11-06T08:44:25.777Z,3.28
2022-11-06T08:46:53.990Z,5.05
2022-11-06T08:49:20.450Z,4.47
2022-11-06T08:51:49.723Z,4.43
2022-11-06T08:54:26.397Z,4.70
2022-11-06T08:56:53.522Z,4.65
2022-11-06T08:59:20.346Z,4.25
2022-11-06T09:01:46.974Z,4.10
2022-11-06T09:04:13.649Z,4.75
2022-11-06T09:06:40.141Z,4.13
2022-11-06T09:09:06.605Z,4.97
2022-11-06T09:11:33.200Z,4.80
2022-11-06T09:13:59.715Z,4.57
2022-11-06T09:16:26.350Z,3.75
2022-11-06T09:18:57.144Z,4.33
2022-11-06T09:21:23.831Z,4.00
2022-11-06T09:23:50.445Z,4.25
2022-11-06T09:26:17.261Z,3.70
2022-11-06T09:28:43.936Z,3.80
2022-11-06T09:31:10.553Z,3.53
2022-11-06T09:33:37.014Z,3.30
2022-11-06T09:36:05.337Z,2.90
2022-11-06T09:38:32.351Z,2.53
2022-11-06T09:41:02.589Z,2.83
2022-11-06T09:46:25.574Z,2.67
2022-11-06T09:48:59.133Z,4.07
2022-11-06T09:51:32.249Z,3.92
2022-11-06T09:54:18.240Z,3.13
2022-11-06T09:56:46.193Z,2.90
2022-11-06T09:59:15.477Z,1.90
2022-11-06T10:01:56.931Z,2.00
2022-11-06T10:04:45.850Z,2.70
2022-11-06T10:07:49.244Z,2.50
2022-11-06T10:10:46.143Z,2.70
2022-11-06T10:13:50.736Z,3.10
2022-11-06T10:17:03.570Z,2.42
2022-11-06T10:19:54.725Z,2.60
2022-11-06T10:22:40.120Z,2.17
2022-11-06T10:25:22.796Z,2.07
2022-11-06T10:28:32.475Z,2.60
2022-11-06T10:31:14.007Z,2.38
2022-11-06T10:34:18.812Z,2.40
2022-11-06T10:36:50.181Z,2.95
2022-11-06T10:39:23.342Z,2.90
2022-11-06T10:41:54.110Z,2.53
2022-11-06T10:44:50.086Z,2.20
2022-11-06T10:47:55.819Z,2.72
2022-11-06T10:50:26.105Z,3.20
2022-11-06T10:53:00.676Z,3.00
2022-11-06T10:55:39.645Z,2.58
2022-11-06T10:58:21.308Z,2.55
2022-11-06T11:00:50.486Z,2.08
2022-11-06T11:03:28.897Z,2.20
2022-11-06T11:05:55.785Z,2.40
2022-11-06T11:08:50.399Z,2.65
2022-11-06T11:11:37.413Z,1.90
2022-11-06T11:14:04.258Z,2.70
2022-11-06T11:16:35.532Z,2.67
2022-11-06T11:19:27.020Z,2.60
2022-11-06T11:22:00.379Z,2.22
2022-11-06T11:24:27.093Z,1.90
2022-11-06T11:27:15.592Z,2.38
2022-11-06T11:29:45.295Z,2.33
2022-11-06T11:32:14.885Z,2.23
2022-11-06T11:34:56.251Z,2.15
2022-11-06T11:37:34.075Z,1.63
2022-11-06T11:40:38.335Z,2.33
2022-11-06T11:43:22.130Z,1.75
2022-11-06T11:46:12.250Z,2.80
2022-11-06T11:48:46.278Z,2.90
2022-11-06T11:51:27.262Z,1.85
2022-11-06T11:53:56.581Z,2.47
2022-11-06T11:56:49.553Z,2.20
2022-11-06T11:59:16.481Z,2.60
2022-11-06T12:01:43.436Z,2.00
2022-11-06T12:04:19.737Z,1.70
2022-11-06T12:07:07.287Z,2.22
2022-11-06T12:09:41.392Z,2.25
2022-11-06T12:12:21.767Z,2.60
2022-11-06T12:15:08.919Z,2.90
2022-11-06T12:17:37.596Z,2.25
2022-11-06T12:20:09.352Z,2.17
2022-11-06T12:22:40.876Z,2.55
2022-11-06T12:25:16.573Z,2.53
2022-11-06T12:27:50.947Z,2.42
2022-11-06T12:30:19.467Z,2.13
2022-11-06T12:32:56.790Z,1.98
2022-11-06T12:35:42.598Z,1.88
2022-11-06T12:38:32.905Z,2.30
2022-11-06T12:41:25.517Z,2.83
2022-11-06T12:43:52.343Z,3.00
2022-11-06T12:46:59.713Z,2.80
2022-11-06T12:50:01.015Z,2.80
2022-11-06T12:52:53.758Z,2.90
2022-11-06T12:55:33.749Z,3.08
2022-11-06T12:58:35.474Z,2.60
2022-11-06T13:01:20.393Z,2.72
2022-11-06T13:03:46.869Z,2.42
2022-11-06T13:06:19.859Z,2.93
2022-11-06T13:08:56.747Z,2.75
2022-11-06T13:11:46.181Z,2.78
2022-11-06T13:14:18.788Z,2.88
2022-11-06T13:16:51.252Z,2.80
2022-11-06T13:19:38.681Z,3.20
2022-11-06T13:22:14.682Z,3.33
2022-11-06T13:24:46.475Z,2.88
2022-11-06T13:27:36.524Z,3.33
2022-11-06T13:30:10.859Z,2.72
2022-11-06T13:32:39.405Z,3.30
2022-11-06T13:35:06.876Z,4.00
2022-11-06T13:37:41.817Z,3.63
2022-11-06T13:40:30.778Z,3.17
2022-11-06T13:43:35.061Z,3.88
2022-11-06T13:46:30.884Z,2.90
2022-11-06T13:49:19.913Z,3.65
2022-11-06T13:54:47.129Z,4.97
2022-11-06T13:57:48.012Z,3.70
2022-11-06T14:00:19.018Z,3.80
2022-11-06T14:02:57.792Z,3.63
2022-11-06T14:05:48.223Z,3.83
2022-11-06T14:08:19.669Z,3.42
2022-11-06T14:11:02.620Z,4.00
2022-11-06T14:13:34.225Z,3.90
2022-11-06T14:16:06.767Z,3.97
2022-11-06T14:18:33.914Z,4.28
2022-11-06T14:21:40.868Z,3.17
2022-11-06T14:24:19.631Z,3.67
2022-11-06T14:26:49.717Z,3.27
2022-11-06T14:29:28.676Z,3.78
2022-11-06T14:32:00.363Z,3.85
2022-11-06T14:34:29.312Z,3.80
2022-11-06T14:36:57.482Z,2.90
2022-11-06T14:39:52.487Z,3.77
2022-11-06T14:42:29.670Z,2.65
2022-11-06T14:44:57.872Z,2.97
2022-11-06T14:47:37.211Z,1.75
2022-11-06T14:50:21.749Z,2.47
2022-11-06T14:53:03.505Z,2.53
2022-11-06T14:55:55.329Z,3.67
2022-11-06T14:58:29.350Z,3.40
2022-11-06T15:01:00.252Z,3.00
2022-11-06T15:03:58.183Z,3.30
2022-11-06T15:06:33.947Z,2.90
2022-11-06T15:09:13.502Z,3.00
2022-11-06T15:11:46.599Z,3.05
2022-11-06T15:14:14.415Z,3.88
2022-11-06T15:17:10.493Z,2.72
2022-11-06T15:19:43.021Z,2.23
2022-11-06T15:22:32.738Z,3.13
2022-11-06T15:25:24.076Z,3.33
2022-11-06T15:28:13.528Z,3.42
2022-11-06T15:30:48.590Z,2.65
2022-11-06T15:33:22.598Z,3.90
2022-11-06T15:35:50.697Z,4.28
2022-11-06T15:38:31.141Z,3.63
2022-11-06T15:40:59.318Z,4.30
2022-11-06T15:43:41.501Z,4.43
2022-11-06T15:46:22.095Z,4.07
2022-11-06T15:49:06.284Z,3.53
2022-11-06T15:51:42.284Z,4.10
2022-11-06T15:54:14.663Z,4.88
2022-11-06T15:56:50.059Z,5.20
2022-11-06T15:59:17.143Z,4.70
2022-11-06T16:01:56.399Z,4.85
2022-11-06T16:07:05.880Z,5.95
2022-11-06T16:09:32.741Z,5.53
2022-11-06T16:11:59.380Z,5.57
2022-11-06T16:14:25.837Z,5.63
2022-11-06T16:16:53.256Z,4.95
2022-11-06T16:19:37.124Z,5.78
2022-11-06T16:22:07.609Z,5.85
2022-11-06T16:24:42.150Z,5.97
2022-11-06T16:27:08.895Z,5.28
2022-11-06T16:29:43.259Z,5.05
2022-11-06T16:32:16.583Z,6.03
2022-11-06T16:34:47.157Z,5.47
2022-11-06T16:37:20.786Z,6.00
2022-11-06T16:39:53.958Z,5.90
2022-11-06T16:42:30.754Z,5.80
2022-11-06T16:45:03.281Z,6.03
2022-11-06T16:47:31.290Z,5.53
2022-11-06T16:49:58.424Z,6.27
2022-11-06T16:53:00.525Z,6.38
2022-11-06T16:55:28.493Z,4.90
2022-11-06T16:57:57.524Z,6.45
2022-11-06T17:00:33.238Z,5.13
2022-11-06T17:03:02.335Z,6.10
2022-11-06T17:05:33.556Z,5.65
2022-11-06T17:08:21.229Z,4.82
2022-11-06T17:10:59.330Z,6.57
2022-11-06T17:13:52.688Z,6.18
2022-11-06T17:16:25.813Z,5.53
2022-11-06T17:18:53.041Z,7.00
2022-11-06T17:21:27.394Z,5.18
2022-11-06T17:24:12.211Z,6.30
2022-11-06T17:27:11.973Z,7.18
2022-11-06T17:29:57.546Z,7.63
2022-11-06T17:32:26.070Z,7.60
2022-11-06T17:35:07.623Z,7.72
2022-11-06T17:37:36.932Z,7.00
2022-11-06T17:40:11.054Z,7.72
2022-11-06T17:42:55.767Z,7.90
2022-11-06T17:45:25.372Z,8.70
2022-11-06T17:47:56.484Z,7.78
2022-11-06T17:50:23.944Z,8.70
2022-11-06T17:53:02.552Z,8.02
2022-11-06T17:55:32.146Z,8.40
2022-11-06T17:58:12.853Z,8.63
2022-11-06T18:00:43.146Z,7.97
2022-11-06T18:03:19.499Z,8.07
2022-11-06T18:05:50.379Z,8.50
2022-11-06T18:08:24.162Z,8.00
2022-11-06T18:11:02.263Z,8.60
2022-11-06T18:16:19.690Z,8.45
2022-11-06T18:18:47.782Z,9.10
2022-11-06T18:21:14.579Z,8.53
2022-11-06T18:23:41.123Z,8.82
2022-11-06T18:26:10.995Z,8.85
2022-11-06T18:28:37.533Z,7.20
2022-11-06T18:31:04.106Z,8.82
2022-11-06T18:33:31.707Z,5.67
2022-11-06T18:36:02.582Z,9.52
2022-11-06T18:38:29.346Z,6.38
2022-11-06T18:40:56.198Z,10.15
2022-11-06T18:43:22.896Z,8.88
2022-11-06T18:45:49.606Z,10.60
2022-11-06T18:48:21.023Z,9.93
2022-11-06T18:50:48.665Z,7.68
2022-11-06T18:53:15.477Z,7.47
2022-11-06T18:55:45.976Z,10.18
2022-11-06T18:58:13.065Z,9.90
2022-11-06T19:00:41.197Z,7.35
2022-11-06T19:03:07.635Z,7.35
2022-11-06T19:05:34.424Z,8.27
2022-11-06T19:08:02.680Z,9.60
2022-11-06T19:10:31.284Z,8.73
2022-11-06T19:12:59.542Z,9.35
2022-11-06T19:15:26.734Z,9.00
2022-11-06T19:17:54.669Z,9.25
2022-11-06T19:20:21.690Z,7.95
2022-11-06T19:22:51.992Z,9.70
2022-11-06T19:25:19.406Z,9.13
2022-11-06T19:27:46.601Z,9.20
2022-11-06T19:30:16.434Z,9.93
2022-11-06T19:32:42.872Z,9.20
2022-11-06T19:35:09.600Z,8.90
2022-11-06T19:37:38.325Z,7.97
2022-11-06T19:40:06.389Z,9.05
2022-11-06T19:42:33.261Z,9.98
2022-11-06T19:45:00.289Z,9.43
2022-11-06T19:47:28.141Z,10.37
2022-11-06T19:49:54.620Z,10.52
2022-11-06T19:52:42.192Z,9.55
2022-11-06T19:55:25.688Z,8.80
2022-11-06T19:57:54.774Z,9.10
2022-11-06T20:00:21.322Z,9.70
2022-11-06T20:02:50.944Z,9.82
2022-11-06T20:05:18.172Z,9.13
2022-11-06T20:07:44.647Z,8.98
2022-11-06T20:10:11.490Z,9.70
2022-11-06T20:12:38.087Z,9.93
2022-11-06T20:15:05.346Z,10.32
2022-11-06T20:17:31.912Z,9.68
2022-11-06T20:19:58.589Z,9.50
2022-11-06T20:22:25.433Z,9.20
2022-11-06T20:24:53.078Z,7.70
2022-11-06T20:27:19.690Z,9.57
2022-11-06T20:29:46.188Z,9.43
2022-11-06T20:32:18.590Z,9.70
2022-11-06T20:34:45.685Z,9.77
2022-11-06T20:37:13.760Z,8.57
2022-11-06T20:39:41.721Z,9.77
2022-11-06T20:42:08.479Z,9.88
2022-11-06T20:44:40.415Z,10.65
2022-11-06T20:47:07.175Z,10.05
2022-11-06T20:49:33.792Z,10.53
2022-11-06T20:52:17.785Z,11.23
2022-11-06T20:54:47.586Z,9.90
2022-11-06T20:57:15.860Z,9.80
2022-11-06T20:59:42.591Z,8.25
2022-11-06T21:02:11.014Z,10.17
2022-11-06T21:04:38.341Z,10.45
2022-11-06T21:07:04.937Z,7.63
2022-11-06T21:09:31.679Z,9.57
2022-11-06T21:11:58.171Z,9.85
2022-11-06T21:14:24.620Z,10.30
2022-11-06T21:16:52.579Z,10.70
2022-11-06T21:19:19.063Z,10.63
2022-11-06T21:21:45.482Z,10.07
2022-11-06T21:24:12.264Z,10.32
2022-11-06T21:26:38.786Z,10.87
2022-11-06T21:29:07.846Z,10.93
2022-11-06T21:31:34.468Z,7.60
2022-11-06T21:34:02.597Z,6.32
2022-11-06T21:36:31.694Z,6.13
2022-11-06T21:39:00.353Z,8.03
2022-11-06T21:41:28.829Z,10.35
2022-11-06T21:43:55.838Z,11.63
2022-11-06T21:46:23.169Z,11.07
2022-11-06T21:48:50.320Z,11.07
2022-11-06T21:51:26.861Z,9.00
2022-11-06T21:54:12.541Z,10.65
2022-11-06T21:56:40.334Z,5.60
2022-11-06T21:59:09.674Z,11.05
2022-11-06T22:01:36.472Z,7.25
2022-11-06T22:04:03.282Z,10.83
2022-11-06T22:06:30.206Z,10.35
2022-11-06T22:08:58.933Z,10.23
2022-11-06T22:11:31.294Z,9.35
2022-11-06T22:13:59.481Z,9.73
2022-11-06T22:16:28.400Z,10.27
2022-11-06T22:18:55.400Z,8.13
2022-11-06T22:21:24.630Z,7.85
2022-11-06T22:23:51.655Z,8.43
2022-11-06T22:26:20.497Z,6.38
2022-11-06T22:28:47.099Z,8.03
2022-11-06T22:31:14.155Z,9.43
2022-11-06T22:33:40.738Z,8.85
2022-11-06T22:36:12.548Z,9.60
2022-11-06T22:38:42.219Z,8.52
2022-11-06T22:41:13.191Z,9.47
2022-11-06T22:43:40.925Z,8.10
2022-11-06T22:46:09.879Z,8.60
2022-11-06T22:48:36.537Z,9.05
2022-11-06T22:51:07.352Z,7.45
2022-11-06T22:53:34.714Z,8.13
2022-11-06T22:56:01.325Z,7.07
2022-11-06T22:58:29.244Z,7.60
2022-11-06T23:00:57.154Z,7.15
2022-11-06T23:03:26.007Z,5.63
2022-11-06T23:05:52.519Z,8.20
2022-11-06T23:08:19.927Z,7.80
2022-11-06T23:10:47.283Z,8.10
2022-11-06T23:13:13.866Z,8.30
2022-11-06T23:15:40.771Z,8.50
2022-11-06T23:18:07.229Z,8.93
2022-11-06T23:20:34.611Z,8.80
2022-11-06T23:23:02.575Z,7.57
2022-11-06T23:25:29.495Z,6.95
2022-11-06T23:27:57.578Z,7.22
2022-11-06T23:30:24.100Z,8.43
2022-11-06T23:32:50.651Z,7.90
2022-11-06T23:35:17.806Z,8.98
2022-11-06T23:37:45.314Z,8.55
2022-11-06T23:40:13.154Z,7.50
2022-11-06T23:42:39.834Z,8.57
2022-11-06T23:45:25.766Z,9.05
2022-11-06T23:47:52.290Z,7.82
2022-11-06T23:50:18.801Z,8.65
2022-11-06T23:52:45.269Z,7.53
2022-11-06T23:55:12.123Z,8.40
2022-11-06T23:57:38.805Z,7.20
